createdAt,value
2024-02-01T00:00:15.433Z,56.30
2024-02-01T00:03:21.306Z,58.63
2024-02-01T00:06:27.085Z,60.45
2024-02-01T00:09:33.026Z,59.25
2024-02-01T00:12:41.345Z,56.60
2024-02-01T00:15:47.044Z,58.50
2024-02-01T00:18:52.853Z,54.85
2024-02-01T00:21:59.032Z,57.38
2024-02-01T00:25:04.688Z,60.15
2024-02-01T00:28:12.984Z,57.03
2024-02-01T00:31:18.662Z,57.30
2024-02-01T00:34:24.431Z,58.58
2024-02-01T00:37:30.241Z,61.20
2024-02-01T00:40:35.948Z,60.75
2024-02-01T00:43:44.372Z,56.97
2024-02-01T00:46:50.093Z,58.10
2024-02-01T00:49:55.806Z,63.05
2024-02-01T00:53:01.524Z,56.42
2024-02-01T00:56:07.390Z,62.70
2024-02-01T00:59:15.724Z,63.17
2024-02-01T01:02:21.486Z,62.40
2024-02-01T01:05:27.223Z,59.22
2024-02-01T01:08:32.890Z,61.03
2024-02-01T01:11:38.941Z,60.13
2024-02-01T01:14:47.266Z,61.38
2024-02-01T01:17:53.048Z,60.53
2024-02-01T01:20:59.841Z,65.88
2024-02-01T01:24:05.488Z,60.83
2024-02-01T01:27:11.264Z,65.07
2024-02-01T01:30:19.878Z,64.22
2024-02-01T01:33:25.749Z,59.85
2024-02-01T01:36:31.632Z,66.22
2024-02-01T01:39:37.263Z,65.03
2024-02-01T01:42:42.868Z,62.75
2024-02-01T01:45:51.743Z,60.47
2024-02-01T01:48:57.623Z,59.53
2024-02-01T01:52:03.993Z,58.30
2024-02-01T01:55:12.395Z,65.57
2024-02-01T01:58:18.640Z,59.35
2024-02-01T02:01:26.894Z,58.90
2024-02-01T02:04:33.413Z,59.00
2024-02-01T02:07:39.167Z,59.03
2024-02-01T02:10:44.823Z,60.60
2024-02-01T02:13:51.083Z,60.47
2024-02-01T02:16:59.550Z,57.88
2024-02-01T02:20:17.932Z,64.78
2024-02-01T02:23:26.722Z,57.72
2024-02-01T02:26:34.267Z,63.05
2024-02-01T02:29:40.138Z,54.80
2024-02-01T02:32:46.047Z,60.22
2024-02-01T02:35:51.830Z,60.67
2024-02-01T02:39:00.196Z,56.83
2024-02-01T02:42:06.993Z,59.90
2024-02-01T02:45:14.044Z,63.38
2024-02-01T02:48:20.060Z,57.53
2024-02-01T02:51:25.781Z,56.28
2024-02-01T02:54:35.149Z,57.10
2024-02-01T02:57:40.775Z,62.77
2024-02-01T03:00:46.505Z,63.35
2024-02-01T03:03:52.137Z,59.83
2024-02-01T03:06:57.842Z,59.67
2024-02-01T03:10:06.392Z,55.72
2024-02-01T03:13:12.873Z,56.90
2024-02-01T03:16:22.630Z,57.85
2024-02-01T03:19:29.646Z,59.70
2024-02-01T03:22:36.121Z,58.42
2024-02-01T03:25:44.381Z,62.10
2024-02-01T03:28:50.950Z,60.40
2024-02-01T03:31:58.914Z,60.03
2024-02-01T03:35:05.622Z,58.05
2024-02-01T03:38:16.739Z,59.78
2024-02-01T03:41:25.120Z,55.13
2024-02-01T03:44:30.877Z,55.97
2024-02-01T03:47:36.671Z,60.53
2024-02-01T03:50:42.610Z,66.28
2024-02-01T03:53:48.736Z,64.18
2024-02-01T03:56:57.624Z,62.78
2024-02-01T04:00:03.383Z,57.88
2024-02-01T04:03:17.619Z,58.20
2024-02-01T04:06:23.813Z,63.90
2024-02-01T04:09:29.561Z,59.17
2024-02-01T04:12:37.875Z,61.00
2024-02-01T04:15:44.144Z,56.83
2024-02-01T04:18:50.016Z,57.83
2024-02-01T04:21:55.905Z,59.47
2024-02-01T04:25:01.620Z,62.78
2024-02-01T04:28:10.972Z,59.45
2024-02-01T04:31:16.739Z,59.42
2024-02-01T04:34:22.676Z,62.65
2024-02-01T04:37:28.411Z,61.08
2024-02-01T04:40:34.092Z,63.22
2024-02-01T04:43:44.760Z,58.53
2024-02-01T04:46:50.522Z,59.25
2024-02-01T04:49:56.366Z,57.60
2024-02-01T04:53:02.068Z,58.60
2024-02-01T04:56:09.416Z,62.70
2024-02-01T04:59:17.839Z,52.35
2024-02-01T05:02:24.338Z,59.30
2024-02-01T05:05:30.073Z,57.83
2024-02-01T05:08:35.830Z,59.70
2024-02-01T05:11:41.608Z,58.45
2024-02-01T05:14:49.948Z,59.17
2024-02-01T05:17:56.432Z,60.88
2024-02-01T05:21:02.513Z,61.97
2024-02-01T05:24:09.628Z,57.55
2024-02-01T05:27:15.572Z,58.40
2024-02-01T05:30:24.939Z,53.10
2024-02-01T05:33:31.079Z,55.88
2024-02-01T05:36:36.920Z,60.22
2024-02-01T05:39:46.081Z,55.97
2024-02-01T05:42:51.877Z,59.55
2024-02-01T05:46:00.185Z,54.83
2024-02-01T05:49:05.977Z,52.50
2024-02-01T05:52:11.799Z,58.85
2024-02-01T05:55:17.570Z,57.38
2024-02-01T05:58:23.893Z,54.92
2024-02-01T06:01:32.379Z,48.08
2024-02-01T06:04:38.009Z,59.80
2024-02-01T06:07:43.698Z,56.00
2024-02-01T06:10:49.554Z,57.00
2024-02-01T06:13:55.213Z,57.15
2024-02-01T06:17:03.672Z,54.60
2024-02-01T06:20:10.230Z,64.38
2024-02-01T06:23:16.993Z,60.45
2024-02-01T06:26:23.468Z,60.33
2024-02-01T06:29:29.109Z,60.60
2024-02-01T06:32:37.511Z,57.58
2024-02-01T06:35:44.721Z,61.00
2024-02-01T06:39:08.512Z,60.53
2024-02-01T06:42:26.268Z,60.13
2024-02-01T06:45:34.083Z,59.63
2024-02-01T06:48:48.532Z,58.30
2024-02-01T06:52:04.510Z,55.13
2024-02-01T06:55:28.386Z,54.00
2024-02-01T06:58:49.824Z,55.58
2024-02-01T07:02:05.245Z,53.17
2024-02-01T07:05:23.548Z,56.90
2024-02-01T07:08:46.524Z,56.75
2024-02-01T07:12:11.942Z,57.85
2024-02-01T07:15:30.447Z,59.17
2024-02-01T07:18:38.335Z,55.85
2024-02-01T07:22:02.531Z,59.05
2024-02-01T07:25:35.400Z,54.40
2024-02-01T07:28:53.511Z,51.50
2024-02-01T07:32:15.232Z,53.15
2024-02-01T07:35:33.338Z,54.40
2024-02-01T07:38:54.026Z,53.70
2024-02-01T07:42:12.277Z,54.10
2024-02-01T07:45:30.702Z,52.15
2024-02-01T07:48:48.954Z,55.55
2024-02-01T07:52:07.294Z,54.78
2024-02-01T07:55:28.306Z,59.47
2024-02-01T07:58:34.200Z,56.80
2024-02-01T08:02:00.222Z,53.08
2024-02-01T08:05:18.633Z,57.33
2024-02-01T08:08:24.328Z,54.83
2024-02-01T08:11:32.665Z,57.92
2024-02-01T08:14:38.473Z,54.22
2024-02-01T08:17:45.237Z,59.63
2024-02-01T08:20:51.203Z,51.95
2024-02-01T08:23:57.113Z,55.65
2024-02-01T08:27:06.473Z,56.85
2024-02-01T08:30:16.630Z,59.73
2024-02-01T08:33:22.483Z,53.30
2024-02-01T08:36:28.250Z,54.78
2024-02-01T08:39:34.072Z,54.00
2024-02-01T08:42:42.348Z,55.67
2024-02-01T08:45:48.319Z,50.28
2024-02-01T08:48:54.308Z,45.35
2024-02-01T08:52:00.894Z,48.60
2024-02-01T08:55:12.420Z,51.25
2024-02-01T08:58:22.282Z,52.92
2024-02-01T09:01:28.497Z,52.72
2024-02-01T09:04:34.206Z,52.60
2024-02-01T09:07:43.203Z,55.95
2024-02-01T09:10:59.069Z,53.17
2024-02-01T09:14:12.722Z,51.33
2024-02-01T09:17:18.540Z,51.95
2024-02-01T09:20:27.086Z,49.95
2024-02-01T09:23:32.820Z,48.83
2024-02-01T09:26:38.979Z,52.10
2024-02-01T09:29:47.336Z,47.17
2024-02-01T09:32:55.100Z,46.35
2024-02-01T09:36:00.872Z,47.95
2024-02-01T09:39:07.482Z,48.53
2024-02-01T09:42:13.548Z,53.40
2024-02-01T09:45:29.738Z,46.03
2024-02-01T09:48:39.645Z,43.75
2024-02-01T09:51:48.561Z,46.20
2024-02-01T09:54:54.389Z,46.55
2024-02-01T09:58:01.143Z,43.92
2024-02-01T10:01:10.866Z,45.15
2024-02-01T10:04:17.461Z,42.58
2024-02-01T10:07:24.922Z,45.83
2024-02-01T10:10:30.659Z,47.70
2024-02-01T10:13:39.195Z,46.85
2024-02-01T10:16:47.822Z,44.58
2024-02-01T10:19:54.096Z,45.10
2024-02-01T10:23:01.556Z,44.03
2024-02-01T10:26:19.654Z,47.78
2024-02-01T10:29:25.659Z,43.13
2024-02-01T10:32:36.099Z,47.33
2024-02-01T10:35:44.004Z,39.20
2024-02-01T10:38:50.212Z,45.15
2024-02-01T10:41:57.815Z,45.05
2024-02-01T10:45:07.698Z,42.88
2024-02-01T10:48:18.032Z,43.47
2024-02-01T10:54:31.856Z,42.53
2024-02-01T10:57:37.846Z,45.22
2024-02-01T11:00:45.469Z,42.80
2024-02-01T11:03:57.429Z,47.88
2024-02-01T11:07:03.569Z,49.58
2024-02-01T11:10:14.792Z,49.80
2024-02-01T11:13:30.965Z,42.53
2024-02-01T11:16:40.526Z,49.78
2024-02-01T11:19:52.190Z,43.33
2024-02-01T11:23:01.395Z,49.97
2024-02-01T11:26:16.619Z,52.83
2024-02-01T11:29:25.897Z,48.90
2024-02-01T11:32:34.770Z,45.03
2024-02-01T11:35:44.408Z,47.35
2024-02-01T11:38:54.502Z,48.88
2024-02-01T11:42:02.260Z,45.75
2024-02-01T11:45:11.717Z,44.10
2024-02-01T11:48:18.765Z,49.67
2024-02-01T11:51:27.990Z,45.97
2024-02-01T11:54:34.334Z,47.08
2024-02-01T11:57:49.307Z,49.78
2024-02-01T12:01:05.959Z,50.05
2024-02-01T12:04:17.719Z,47.65
2024-02-01T12:07:26.133Z,52.70
2024-02-01T12:10:32.565Z,46.63
2024-02-01T12:13:38.718Z,48.47
2024-02-01T12:16:44.659Z,47.67
2024-02-01T12:19:56.752Z,46.60
2024-02-01T12:23:07.533Z,48.70
2024-02-01T12:26:13.565Z,44.83
2024-02-01T12:29:19.275Z,46.38
2024-02-01T12:32:27.653Z,46.42
2024-02-01T12:35:33.376Z,50.78
2024-02-01T12:38:46.161Z,48.45
2024-02-01T12:41:51.908Z,50.30
2024-02-01T12:44:57.692Z,47.80
2024-02-01T12:48:03.619Z,49.25
2024-02-01T12:51:09.809Z,47.72
2024-02-01T12:54:19.077Z,50.45
2024-02-01T12:57:24.826Z,50.42
2024-02-01T13:00:30.572Z,46.58
2024-02-01T13:03:36.326Z,51.05
2024-02-01T13:06:42.130Z,48.80
2024-02-01T13:09:50.460Z,48.83
2024-02-01T13:13:00.231Z,51.58
2024-02-01T13:16:06.306Z,48.33
2024-02-01T13:19:13.481Z,53.75
2024-02-01T13:22:19.371Z,43.20
2024-02-01T13:25:27.579Z,50.05
2024-02-01T13:28:33.329Z,47.40
2024-02-01T13:31:40.038Z,47.47
2024-02-01T13:34:46.507Z,48.28
2024-02-01T13:37:53.123Z,42.83
2024-02-01T13:41:02.139Z,50.83
2024-02-01T13:44:07.969Z,50.90
2024-02-01T13:47:13.633Z,49.58
2024-02-01T13:50:19.378Z,46.80
2024-02-01T13:53:25.041Z,45.42
2024-02-01T13:56:33.355Z,50.03
2024-02-01T13:59:39.174Z,54.13
2024-02-01T14:02:44.983Z,55.10
2024-02-01T14:05:50.785Z,48.75
2024-02-01T14:08:56.688Z,45.83
2024-02-01T14:12:06.473Z,45.92
2024-02-01T14:15:13.478Z,48.85
2024-02-01T14:18:19.430Z,51.38
2024-02-01T14:21:25.208Z,46.13
2024-02-01T14:24:31.961Z,45.35
2024-02-01T14:27:40.867Z,44.38
2024-02-01T14:30:46.660Z,46.25
2024-02-01T14:33:52.537Z,44.50
2024-02-01T14:36:58.379Z,46.20
2024-02-01T14:40:04.280Z,48.08
2024-02-01T14:43:12.852Z,46.33
2024-02-01T14:46:18.533Z,41.85
2024-02-01T14:49:24.566Z,41.95
2024-02-01T14:52:30.318Z,41.67
2024-02-01T14:55:36.052Z,46.38
2024-02-01T14:58:44.331Z,42.83
2024-02-01T15:01:50.477Z,42.72
2024-02-01T15:04:58.438Z,44.17
2024-02-01T15:08:04.266Z,43.90
2024-02-01T15:11:10.297Z,39.72
2024-02-01T15:14:19.684Z,40.95
2024-02-01T15:17:25.379Z,48.43
2024-02-01T15:20:35.518Z,44.47
2024-02-01T15:23:41.617Z,41.80
2024-02-01T15:26:47.377Z,43.40
2024-02-01T15:29:56.016Z,43.95
2024-02-01T15:33:02.409Z,40.67
2024-02-01T15:36:08.473Z,44.88
2024-02-01T15:39:16.256Z,39.85
2024-02-01T15:42:23.340Z,42.15
2024-02-01T15:45:34.734Z,42.30
2024-02-01T15:48:44.310Z,44.80
2024-02-01T15:51:50.115Z,40.78
2024-02-01T15:54:55.895Z,40.75
2024-02-01T15:58:01.927Z,40.95
2024-02-01T16:01:13.186Z,38.83
2024-02-01T16:04:20.106Z,40.70
2024-02-01T16:07:25.976Z,40.40
2024-02-01T16:10:31.807Z,41.47
2024-02-01T16:13:39.997Z,36.42
2024-02-01T16:16:48.282Z,39.10
2024-02-01T16:19:54.307Z,40.15
2024-02-01T16:23:00.221Z,39.80
2024-02-01T16:26:06.353Z,39.42
2024-02-01T16:29:13.926Z,41.92
2024-02-01T16:32:29.412Z,46.35
2024-02-01T16:35:42.989Z,40.13
2024-02-01T16:38:48.742Z,45.40
2024-02-01T16:42:00.320Z,39.85
2024-02-01T16:45:08.326Z,43.53
2024-02-01T16:48:17.730Z,38.42
2024-02-01T16:51:25.445Z,40.17
2024-02-01T16:54:31.273Z,44.13
2024-02-01T16:57:37.071Z,41.63
2024-02-01T17:00:44.371Z,41.95
2024-02-01T17:03:52.912Z,44.90
2024-02-01T17:06:59.235Z,41.38
2024-02-01T17:10:05.292Z,42.72
2024-02-01T17:13:11.265Z,46.10
2024-02-01T17:16:24.733Z,45.65
2024-02-01T17:19:33.606Z,44.58
2024-02-01T17:22:39.855Z,41.83
2024-02-01T17:26:03.083Z,44.83
2024-02-01T17:29:09.684Z,43.45
2024-02-01T17:32:18.317Z,48.03
2024-02-01T17:35:26.716Z,43.08
2024-02-01T17:38:32.702Z,39.72
2024-02-01T17:41:43.134Z,40.88
2024-02-01T17:44:53.455Z,43.80
2024-02-01T17:48:06.751Z,43.90
2024-02-01T17:54:24.672Z,41.60
2024-02-01T17:57:32.980Z,44.90
2024-02-01T18:00:38.791Z,42.55
2024-02-01T18:03:44.956Z,46.22
2024-02-01T18:06:50.919Z,46.53
2024-02-01T18:09:59.611Z,44.83
2024-02-01T18:13:05.371Z,43.53
2024-02-01T18:16:15.417Z,47.35
2024-02-01T18:19:24.271Z,43.67
2024-02-01T18:22:31.546Z,43.80
2024-02-01T18:25:42.258Z,45.55
2024-02-01T18:28:48.827Z,48.72
2024-02-01T18:31:55.078Z,43.00
2024-02-01T18:35:02.710Z,40.45
2024-02-01T18:38:14.023Z,45.55
2024-02-01T18:41:23.497Z,48.10
2024-02-01T18:44:30.706Z,43.70
2024-02-01T18:47:41.666Z,44.42
2024-02-01T18:50:48.582Z,45.78
2024-02-01T18:53:59.117Z,46.35
2024-02-01T18:57:08.839Z,42.75
2024-02-01T19:00:24.703Z,48.38
2024-02-01T19:03:41.983Z,44.03
2024-02-01T19:06:52.490Z,46.70
2024-02-01T19:09:58.346Z,46.00
2024-02-01T19:13:06.822Z,47.30
2024-02-01T19:16:14.348Z,44.92
2024-02-01T19:19:20.568Z,47.38
2024-02-01T19:22:36.491Z,43.13
2024-02-01T19:25:42.233Z,46.92
2024-02-01T19:28:51.330Z,48.85
2024-02-01T19:31:58.513Z,41.60
2024-02-01T19:35:04.876Z,46.50
2024-02-01T19:38:12.698Z,48.10
2024-02-01T19:41:18.337Z,45.05
2024-02-01T19:44:29.827Z,42.63
2024-02-01T19:47:36.219Z,45.55
2024-02-01T19:50:41.980Z,39.33
2024-02-01T19:53:47.654Z,46.75
2024-02-01T19:56:55.565Z,43.53
2024-02-01T20:00:08.434Z,46.78
2024-02-01T20:03:26.184Z,43.28
2024-02-01T20:06:32.463Z,45.80
2024-02-01T20:09:38.403Z,43.40
2024-02-01T20:12:46.397Z,42.85
2024-02-01T20:15:54.902Z,44.25
2024-02-01T20:19:00.930Z,45.95
2024-02-01T20:22:10.321Z,45.88
2024-02-01T20:25:24.227Z,44.97
2024-02-01T20:28:51.833Z,40.47
2024-02-01T20:32:02.451Z,42.13
2024-02-01T20:35:09.533Z,43.80
2024-02-01T20:38:15.922Z,48.17
2024-02-01T20:41:21.589Z,43.75
2024-02-01T20:44:28.996Z,45.58
2024-02-01T20:47:41.163Z,45.17
2024-02-01T20:50:46.918Z,48.72
2024-02-01T20:53:57.901Z,42.50
2024-02-01T20:57:27.731Z,38.92
2024-02-01T21:00:34.183Z,43.40
2024-02-01T21:03:42.831Z,43.33
2024-02-01T21:06:50.562Z,46.08
2024-02-01T21:09:56.359Z,44.13
2024-02-01T21:13:07.758Z,43.88
2024-02-01T21:16:21.421Z,47.67
2024-02-01T21:19:29.919Z,47.50
2024-02-01T21:22:36.702Z,48.42
2024-02-01T21:26:04.366Z,44.15
2024-02-01T21:29:17.069Z,45.03
2024-02-01T21:32:23.222Z,47.35
2024-02-01T21:35:44.223Z,49.80
2024-02-01T21:38:50.051Z,52.08
2024-02-01T21:41:56.058Z,48.90
2024-02-01T21:45:03.303Z,49.03
2024-02-01T21:48:11.194Z,52.03
2024-02-01T21:51:22.853Z,54.35
2024-02-01T21:54:28.737Z,51.90
2024-02-01T21:57:35.156Z,51.58
2024-02-01T22:00:40.901Z,52.22
2024-02-01T22:03:49.131Z,52.17
2024-02-01T22:06:57.570Z,53.67
2024-02-01T22:10:03.319Z,51.65
2024-02-01T22:13:09.169Z,51.42
2024-02-01T22:16:15.244Z,51.78
2024-02-01T22:19:21.161Z,52.13
2024-02-01T22:22:31.312Z,53.85
2024-02-01T22:25:36.926Z,55.63
2024-02-01T22:28:42.610Z,50.05
2024-02-01T22:31:48.351Z,51.35
2024-02-01T22:34:54.238Z,51.92
2024-02-01T22:38:02.607Z,47.55
2024-02-01T22:41:08.473Z,50.92
2024-02-01T22:44:14.184Z,51.72
2024-02-01T22:47:19.926Z,48.67
2024-02-01T22:50:25.647Z,48.33
2024-02-01T22:53:34.199Z,50.75
2024-02-01T22:56:39.946Z,48.80
2024-02-01T22:59:46.065Z,48.17
2024-02-01T23:02:51.845Z,48.45
2024-02-01T23:05:57.631Z,50.10
2024-02-01T23:09:06.188Z,48.95
2024-02-01T23:12:12.101Z,48.83
2024-02-01T23:15:17.876Z,47.97
2024-02-01T23:18:23.713Z,47.25
2024-02-01T23:21:30.250Z,46.83
2024-02-01T23:24:38.903Z,47.25
2024-02-01T23:27:46.674Z,49.47
2024-02-01T23:30:52.914Z,50.00
2024-02-01T23:33:59.999Z,48.25
2024-02-01T23:37:06.104Z,46.03
2024-02-01T23:40:15.497Z,44.30
2024-02-01T23:43:21.265Z,47.10
2024-02-01T23:46:26.930Z,51.35
2024-02-01T23:49:32.784Z,48.33
2024-02-01T23:52:38.563Z,49.92
2024-02-01T23:55:47.160Z,47.03
2024-02-01T23:58:52.854Z,44.70
